sensor_id;sensor_type;location;lat;lon;timestamp;P1;durP1;ratioP1;P2;durP2;ratioP2
79664;SDS011;69132;44.014;20.918;2023-04-25T00:01:10;10.15;;;7.20;;
79664;SDS011;69132;44.014;20.918;2023-04-25T00:03:38;9.98;;;7.47;;
79664;SDS011;69132;44.014;20.918;2023-04-25T00:06:05;17.80;;;12.73;;
79664;SDS011;69132;44.014;20.918;2023-04-25T00:08:31;34.20;;;23.65;;
79664;SDS011;69132;44.014;20.918;2023-04-25T00:10:58;35.10;;;27.45;;
79664;SDS011;69132;44.014;20.918;2023-04-25T00:13:24;19.02;;;15.30;;
79664;SDS011;69132;44.014;20.918;2023-04-25T00:15:56;8.95;;;6.85;;
79664;SDS011;69132;44.014;20.918;2023-04-25T00:18:23;6.90;;;5.63;;
79664;SDS011;69132;44.014;20.918;2023-04-25T00:20:49;7.45;;;5.97;;
79664;SDS011;69132;44.014;20.918;2023-04-25T00:23:15;8.02;;;5.95;;
79664;SDS011;69132;44.014;20.918;2023-04-25T00:25:45;6.32;;;5.43;;
79664;SDS011;69132;44.014;20.918;2023-04-25T00:28:15;8.38;;;6.65;;
79664;SDS011;69132;44.014;20.918;2023-04-25T00:30:42;7.40;;;6.65;;
79664;SDS011;69132;44.014;20.918;2023-04-25T00:33:09;8.15;;;6.40;;
79664;SDS011;69132;44.014;20.918;2023-04-25T00:35:35;7.30;;;5.50;;
79664;SDS011;69132;44.014;20.918;2023-04-25T00:38:02;7.97;;;6.25;;
79664;SDS011;69132;44.014;20.918;2023-04-25T00:40:29;7.15;;;5.85;;
79664;SDS011;69132;44.014;20.918;2023-04-25T00:42:55;7.40;;;4.65;;
79664;SDS011;69132;44.014;20.918;2023-04-25T00:45:21;6.10;;;5.25;;
79664;SDS011;69132;44.014;20.918;2023-04-25T00:47:54;6.07;;;4.45;;
79664;SDS011;69132;44.014;20.918;2023-04-25T00:50:22;5.10;;;4.10;;
79664;SDS011;69132;44.014;20.918;2023-04-25T00:52:48;4.88;;;4.07;;
79664;SDS011;69132;44.014;20.918;2023-04-25T00:55:15;4.82;;;4.38;;
79664;SDS011;69132;44.014;20.918;2023-04-25T00:57:41;4.90;;;2.60;;
79664;SDS011;69132;44.014;20.918;2023-04-25T01:00:08;2.72;;;2.50;;
79664;SDS011;69132;44.014;20.918;2023-04-25T01:02:35;3.20;;;2.78;;
79664;SDS011;69132;44.014;20.918;2023-04-25T01:05:01;3.03;;;2.67;;
79664;SDS011;69132;44.014;20.918;2023-04-25T01:07:28;3.75;;;2.30;;
79664;SDS011;69132;44.014;20.918;2023-04-25T01:09:55;4.97;;;2.50;;
79664;SDS011;69132;44.014;20.918;2023-04-25T01:12:22;2.50;;;2.30;;
79664;SDS011;69132;44.014;20.918;2023-04-25T01:14:48;3.70;;;2.40;;
79664;SDS011;69132;44.014;20.918;2023-04-25T01:17:14;4.55;;;2.35;;
79664;SDS011;69132;44.014;20.918;2023-04-25T01:19:41;3.20;;;2.25;;
79664;SDS011;69132;44.014;20.918;2023-04-25T01:22:08;3.67;;;2.20;;
79664;SDS011;69132;44.014;20.918;2023-04-25T01:24:35;6.35;;;3.28;;
79664;SDS011;69132;44.014;20.918;2023-04-25T01:27:04;4.13;;;2.60;;
79664;SDS011;69132;44.014;20.918;2023-04-25T01:29:32;4.40;;;2.85;;
79664;SDS011;69132;44.014;20.918;2023-04-25T01:31:58;3.03;;;2.72;;
79664;SDS011;69132;44.014;20.918;2023-04-25T01:34:25;6.05;;;2.90;;
79664;SDS011;69132;44.014;20.918;2023-04-25T01:36:51;2.75;;;2.33;;
79664;SDS011;69132;44.014;20.918;2023-04-25T01:39:17;2.47;;;2.28;;
79664;SDS011;69132;44.014;20.918;2023-04-25T01:41:44;4.22;;;2.90;;
79664;SDS011;69132;44.014;20.918;2023-04-25T01:44:10;5.38;;;2.75;;
79664;SDS011;69132;44.014;20.918;2023-04-25T01:46:36;4.40;;;2.78;;
79664;SDS011;69132;44.014;20.918;2023-04-25T01:49:05;4.07;;;2.42;;
79664;SDS011;69132;44.014;20.918;2023-04-25T01:51:31;6.35;;;4.00;;
79664;SDS011;69132;44.014;20.918;2023-04-25T01:53:57;3.65;;;3.25;;
79664;SDS011;69132;44.014;20.918;2023-04-25T01:56:24;4.70;;;3.03;;
79664;SDS011;69132;44.014;20.918;2023-04-25T01:58:50;4.05;;;3.10;;
79664;SDS011;69132;44.014;20.918;2023-04-25T02:01:17;5.20;;;3.70;;
79664;SDS011;69132;44.014;20.918;2023-04-25T02:03:43;4.22;;;3.72;;
79664;SDS011;69132;44.014;20.918;2023-04-25T02:06:09;5.55;;;3.03;;
79664;SDS011;69132;44.014;20.918;2023-04-25T02:08:36;6.97;;;4.57;;
79664;SDS011;69132;44.014;20.918;2023-04-25T02:11:02;32.70;;;19.70;;
79664;SDS011;69132;44.014;20.918;2023-04-25T02:13:28;32.35;;;19.80;;
79664;SDS011;69132;44.014;20.918;2023-04-25T02:15:55;21.70;;;14.45;;
79664;SDS011;69132;44.014;20.918;2023-04-25T02:18:21;7.07;;;5.72;;
79664;SDS011;69132;44.014;20.918;2023-04-25T02:20:47;5.75;;;4.20;;
79664;SDS011;69132;44.014;20.918;2023-04-25T02:23:13;4.97;;;3.60;;
79664;SDS011;69132;44.014;20.918;2023-04-25T02:25:41;5.70;;;3.67;;
79664;SDS011;69132;44.014;20.918;2023-04-25T02:28:07;6.07;;;3.67;;
79664;SDS011;69132;44.014;20.918;2023-04-25T02:30:34;5.55;;;3.25;;
79664;SDS011;69132;44.014;20.918;2023-04-25T02:33:00;5.13;;;3.58;;
79664;SDS011;69132;44.014;20.918;2023-04-25T02:35:26;4.95;;;3.58;;
79664;SDS011;69132;44.014;20.918;2023-04-25T02:37:52;4.13;;;3.10;;
79664;SDS011;69132;44.014;20.918;2023-04-25T02:40:19;4.85;;;3.55;;
79664;SDS011;69132;44.014;20.918;2023-04-25T02:42:45;7.45;;;3.80;;
79664;SDS011;69132;44.014;20.918;2023-04-25T02:45:11;4.65;;;3.75;;
79664;SDS011;69132;44.014;20.918;2023-04-25T02:47:37;5.07;;;4.25;;
79664;SDS011;69132;44.014;20.918;2023-04-25T02:50:05;5.90;;;5.10;;
79664;SDS011;69132;44.014;20.918;2023-04-25T02:52:31;6.38;;;5.55;;
79664;SDS011;69132;44.014;20.918;2023-04-25T02:54:58;9.73;;;6.95;;
79664;SDS011;69132;44.014;20.918;2023-04-25T02:57:24;9.77;;;8.60;;
79664;SDS011;69132;44.014;20.918;2023-04-25T02:59:50;7.07;;;5.60;;
79664;SDS011;69132;44.014;20.918;2023-04-25T03:02:16;6.05;;;4.13;;
79664;SDS011;69132;44.014;20.918;2023-04-25T03:04:42;7.25;;;4.00;;
79664;SDS011;69132;44.014;20.918;2023-04-25T03:07:08;5.45;;;4.05;;
79664;SDS011;69132;44.014;20.918;2023-04-25T03:12:04;5.97;;;3.67;;
79664;SDS011;69132;44.014;20.918;2023-04-25T03:14:30;7.95;;;4.25;;
79664;SDS011;69132;44.014;20.918;2023-04-25T03:16:56;5.28;;;3.58;;
79664;SDS011;69132;44.014;20.918;2023-04-25T03:19:22;4.75;;;2.90;;
79664;SDS011;69132;44.014;20.918;2023-04-25T03:21:48;4.00;;;3.30;;
79664;SDS011;69132;44.014;20.918;2023-04-25T03:24:18;5.68;;;3.45;;
79664;SDS011;69132;44.014;20.918;2023-04-25T03:26:44;4.65;;;3.17;;
79664;SDS011;69132;44.014;20.918;2023-04-25T03:29:10;4.72;;;3.25;;
79664;SDS011;69132;44.014;20.918;2023-04-25T03:31:36;6.70;;;3.95;;
79664;SDS011;69132;44.014;20.918;2023-04-25T03:34:03;5.93;;;4.00;;
79664;SDS011;69132;44.014;20.918;2023-04-25T03:36:29;4.55;;;3.45;;
79664;SDS011;69132;44.014;20.918;2023-04-25T03:38:55;5.47;;;3.90;;
79664;SDS011;69132;44.014;20.918;2023-04-25T03:41:21;4.88;;;3.63;;
79664;SDS011;69132;44.014;20.918;2023-04-25T03:43:48;4.60;;;3.45;;
79664;SDS011;69132;44.014;20.918;2023-04-25T03:46:14;4.05;;;3.10;;
79664;SDS011;69132;44.014;20.918;2023-04-25T03:48:40;3.17;;;2.70;;
79664;SDS011;69132;44.014;20.918;2023-04-25T03:51:08;3.28;;;2.97;;
79664;SDS011;69132;44.014;20.918;2023-04-25T03:53:34;3.72;;;3.13;;
79664;SDS011;69132;44.014;20.918;2023-04-25T03:56:00;4.22;;;3.17;;
79664;SDS011;69132;44.014;20.918;2023-04-25T03:58:26;3.47;;;2.85;;
79664;SDS011;69132;44.014;20.918;2023-04-25T04:00:52;7.90;;;4.43;;
79664;SDS011;69132;44.014;20.918;2023-04-25T04:03:20;4.82;;;3.60;;
79664;SDS011;69132;44.014;20.918;2023-04-25T04:05:48;5.45;;;4.07;;
79664;SDS011;69132;44.014;20.918;2023-04-25T04:08:14;5.93;;;4.15;;
79664;SDS011;69132;44.014;20.918;2023-04-25T04:10:40;11.13;;;10.02;;
79664;SDS011;69132;44.014;20.918;2023-04-25T04:13:07;7.63;;;4.60;;
79664;SDS011;69132;44.014;20.918;2023-04-25T04:15:33;7.25;;;4.63;;
79664;SDS011;69132;44.014;20.918;2023-04-25T04:18:00;6.97;;;5.00;;
79664;SDS011;69132;44.014;20.918;2023-04-25T04:20:32;10.90;;;7.47;;
79664;SDS011;69132;44.014;20.918;2023-04-25T04:22:58;13.00;;;7.75;;
79664;SDS011;69132;44.014;20.918;2023-04-25T04:25:24;10.13;;;5.57;;
79664;SDS011;69132;44.014;20.918;2023-04-25T04:27:51;5.78;;;4.47;;
79664;SDS011;69132;44.014;20.918;2023-04-25T04:30:21;8.13;;;5.43;;
79664;SDS011;69132;44.014;20.918;2023-04-25T04:32:48;5.32;;;4.55;;
79664;SDS011;69132;44.014;20.918;2023-04-25T04:35:15;6.53;;;4.00;;
79664;SDS011;69132;44.014;20.918;2023-04-25T04:37:41;4.32;;;3.35;;
79664;SDS011;69132;44.014;20.918;2023-04-25T04:40:09;4.80;;;3.53;;
79664;SDS011;69132;44.014;20.918;2023-04-25T04:42:36;5.88;;;3.47;;
79664;SDS011;69132;44.014;20.918;2023-04-25T04:45:03;4.97;;;3.93;;
79664;SDS011;69132;44.014;20.918;2023-04-25T04:47:30;4.18;;;3.20;;
79664;SDS011;69132;44.014;20.918;2023-04-25T04:49:57;5.67;;;3.90;;
79664;SDS011;69132;44.014;20.918;2023-04-25T04:52:23;6.88;;;3.40;;
79664;SDS011;69132;44.014;20.918;2023-04-25T04:54:49;4.00;;;3.15;;
79664;SDS011;69132;44.014;20.918;2023-04-25T04:57:15;6.35;;;4.38;;
79664;SDS011;69132;44.014;20.918;2023-04-25T04:59:42;7.05;;;4.68;;
79664;SDS011;69132;44.014;20.918;2023-04-25T05:02:08;7.07;;;4.03;;
79664;SDS011;69132;44.014;20.918;2023-04-25T05:04:35;6.85;;;3.92;;
79664;SDS011;69132;44.014;20.918;2023-04-25T05:07:02;7.75;;;4.68;;
79664;SDS011;69132;44.014;20.918;2023-04-25T05:09:28;7.63;;;4.60;;
79664;SDS011;69132;44.014;20.918;2023-04-25T05:11:58;10.50;;;6.05;;
79664;SDS011;69132;44.014;20.918;2023-04-25T05:14:27;13.57;;;7.28;;
79664;SDS011;69132;44.014;20.918;2023-04-25T05:16:53;8.80;;;5.32;;
79664;SDS011;69132;44.014;20.918;2023-04-25T05:19:25;8.05;;;4.93;;
79664;SDS011;69132;44.014;20.918;2023-04-25T05:21:51;9.38;;;5.60;;
79664;SDS011;69132;44.014;20.918;2023-04-25T05:24:18;6.93;;;5.55;;
79664;SDS011;69132;44.014;20.918;2023-04-25T05:26:44;9.32;;;5.97;;
79664;SDS011;69132;44.014;20.918;2023-04-25T05:29:11;7.75;;;5.68;;
79664;SDS011;69132;44.014;20.918;2023-04-25T05:31:38;7.13;;;5.70;;
79664;SDS011;69132;44.014;20.918;2023-04-25T05:34:06;6.38;;;4.40;;
79664;SDS011;69132;44.014;20.918;2023-04-25T05:36:32;6.65;;;4.65;;
79664;SDS011;69132;44.014;20.918;2023-04-25T05:39:01;5.97;;;4.53;;
79664;SDS011;69132;44.014;20.918;2023-04-25T05:41:29;9.20;;;5.43;;
79664;SDS011;69132;44.014;20.918;2023-04-25T05:43:57;10.77;;;5.88;;
79664;SDS011;69132;44.014;20.918;2023-04-25T05:46:23;9.27;;;6.30;;
79664;SDS011;69132;44.014;20.918;2023-04-25T05:48:50;9.75;;;6.13;;
79664;SDS011;69132;44.014;20.918;2023-04-25T05:51:17;7.05;;;5.35;;
79664;SDS011;69132;44.014;20.918;2023-04-25T05:53:43;12.63;;;8.35;;
79664;SDS011;69132;44.014;20.918;2023-04-25T05:56:09;10.98;;;6.70;;
79664;SDS011;69132;44.014;20.918;2023-04-25T05:58:36;9.77;;;7.93;;
79664;SDS011;69132;44.014;20.918;2023-04-25T06:01:02;10.50;;;7.00;;
79664;SDS011;69132;44.014;20.918;2023-04-25T06:03:28;12.65;;;7.97;;
79664;SDS011;69132;44.014;20.918;2023-04-25T06:05:55;13.70;;;9.20;;
79664;SDS011;69132;44.014;20.918;2023-04-25T06:08:21;10.20;;;8.68;;
79664;SDS011;69132;44.014;20.918;2023-04-25T06:10:47;17.23;;;9.27;;
79664;SDS011;69132;44.014;20.918;2023-04-25T06:13:13;11.70;;;7.78;;
79664;SDS011;69132;44.014;20.918;2023-04-25T06:15:40;11.00;;;6.68;;
79664;SDS011;69132;44.014;20.918;2023-04-25T06:18:07;14.70;;;7.05;;
79664;SDS011;69132;44.014;20.918;2023-04-25T06:20:33;7.30;;;4.65;;
79664;SDS011;69132;44.014;20.918;2023-04-25T06:22:59;8.05;;;4.30;;
79664;SDS011;69132;44.014;20.918;2023-04-25T06:25:26;5.88;;;3.97;;
79664;SDS011;69132;44.014;20.918;2023-04-25T06:27:52;6.40;;;3.58;;
79664;SDS011;69132;44.014;20.918;2023-04-25T06:30:19;6.82;;;3.28;;
79664;SDS011;69132;44.014;20.918;2023-04-25T06:32:48;6.07;;;3.50;;
79664;SDS011;69132;44.014;20.918;2023-04-25T06:35:19;6.63;;;3.28;;
79664;SDS011;69132;44.014;20.918;2023-04-25T06:37:46;5.18;;;2.30;;
79664;SDS011;69132;44.014;20.918;2023-04-25T06:40:13;3.67;;;2.45;;
79664;SDS011;69132;44.014;20.918;2023-04-25T06:42:39;6.75;;;3.13;;
79664;SDS011;69132;44.014;20.918;2023-04-25T06:45:08;8.30;;;3.55;;
79664;SDS011;69132;44.014;20.918;2023-04-25T06:47:35;6.10;;;3.15;;
79664;SDS011;69132;44.014;20.918;2023-04-25T06:50:01;2.83;;;2.00;;
79664;SDS011;69132;44.014;20.918;2023-04-25T06:52:28;6.68;;;2.67;;
79664;SDS011;69132;44.014;20.918;2023-04-25T06:54:55;6.88;;;2.45;;
79664;SDS011;69132;44.014;20.918;2023-04-25T06:57:21;3.72;;;2.35;;
79664;SDS011;69132;44.014;20.918;2023-04-25T06:59:48;2.15;;;1.88;;
79664;SDS011;69132;44.014;20.918;2023-04-25T07:02:14;2.55;;;1.70;;
79664;SDS011;69132;44.014;20.918;2023-04-25T07:04:42;5.32;;;1.85;;
79664;SDS011;69132;44.014;20.918;2023-04-25T07:07:08;2.60;;;1.88;;
79664;SDS011;69132;44.014;20.918;2023-04-25T07:09:34;5.10;;;1.70;;
79664;SDS011;69132;44.014;20.918;2023-04-25T07:12:00;2.08;;;1.80;;
79664;SDS011;69132;44.014;20.918;2023-04-25T07:14:26;2.13;;;1.60;;
79664;SDS011;69132;44.014;20.918;2023-04-25T07:16:53;2.15;;;1.63;;
79664;SDS011;69132;44.014;20.918;2023-04-25T07:19:26;2.47;;;1.60;;
79664;SDS011;69132;44.014;20.918;2023-04-25T07:21:54;5.35;;;1.83;;
79664;SDS011;69132;44.014;20.918;2023-04-25T07:24:20;1.58;;;1.20;;
79664;SDS011;69132;44.014;20.918;2023-04-25T07:26:49;3.83;;;2.05;;
79664;SDS011;69132;44.014;20.918;2023-04-25T07:29:16;1.00;;;0.98;;
79664;SDS011;69132;44.014;20.918;2023-04-25T07:31:44;3.20;;;1.80;;
79664;SDS011;69132;44.014;20.918;2023-04-25T07:34:10;1.58;;;0.90;;
79664;SDS011;69132;44.014;20.918;2023-04-25T07:36:36;1.33;;;0.90;;
79664;SDS011;69132;44.014;20.918;2023-04-25T07:41:35;1.88;;;0.88;;
79664;SDS011;69132;44.014;20.918;2023-04-25T07:44:01;4.22;;;1.70;;
79664;SDS011;69132;44.014;20.918;2023-04-25T07:46:27;1.35;;;0.80;;
79664;SDS011;69132;44.014;20.918;2023-04-25T07:48:54;2.00;;;0.93;;
79664;SDS011;69132;44.014;20.918;2023-04-25T07:51:21;5.25;;;1.38;;
79664;SDS011;69132;44.014;20.918;2023-04-25T07:53:47;2.08;;;1.00;;
79664;SDS011;69132;44.014;20.918;2023-04-25T07:56:13;2.08;;;0.95;;
79664;SDS011;69132;44.014;20.918;2023-04-25T07:58:39;3.28;;;1.08;;
79664;SDS011;69132;44.014;20.918;2023-04-25T08:01:05;2.03;;;1.23;;
79664;SDS011;69132;44.014;20.918;2023-04-25T08:03:31;3.20;;;1.23;;
79664;SDS011;69132;44.014;20.918;2023-04-25T08:05:58;4.82;;;1.52;;
79664;SDS011;69132;44.014;20.918;2023-04-25T08:08:24;5.07;;;1.13;;
79664;SDS011;69132;44.014;20.918;2023-04-25T08:10:50;1.42;;;1.33;;
79664;SDS011;69132;44.014;20.918;2023-04-25T08:13:16;3.08;;;1.50;;
79664;SDS011;69132;44.014;20.918;2023-04-25T08:15:45;1.58;;;1.48;;
79664;SDS011;69132;44.014;20.918;2023-04-25T08:18:11;4.32;;;1.80;;
79664;SDS011;69132;44.014;20.918;2023-04-25T08:20:38;2.80;;;1.92;;
79664;SDS011;69132;44.014;20.918;2023-04-25T08:23:04;9.07;;;2.85;;
79664;SDS011;69132;44.014;20.918;2023-04-25T08:25:31;4.32;;;2.63;;
79664;SDS011;69132;44.014;20.918;2023-04-25T08:27:57;7.32;;;2.35;;
79664;SDS011;69132;44.014;20.918;2023-04-25T08:30:25;3.17;;;1.92;;
79664;SDS011;69132;44.014;20.918;2023-04-25T08:32:52;3.55;;;1.90;;
79664;SDS011;69132;44.014;20.918;2023-04-25T08:35:19;3.65;;;2.00;;
79664;SDS011;69132;44.014;20.918;2023-04-25T08:40:14;3.75;;;1.90;;
79664;SDS011;69132;44.014;20.918;2023-04-25T08:42:47;4.85;;;1.90;;
79664;SDS011;69132;44.014;20.918;2023-04-25T08:45:14;7.13;;;2.70;;
79664;SDS011;69132;44.014;20.918;2023-04-25T08:47:41;5.90;;;2.33;;
79664;SDS011;69132;44.014;20.918;2023-04-25T08:50:09;4.03;;;2.70;;
79664;SDS011;69132;44.014;20.918;2023-04-25T08:52:36;9.88;;;2.70;;
79664;SDS011;69132;44.014;20.918;2023-04-25T08:55:03;3.83;;;3.20;;
79664;SDS011;69132;44.014;20.918;2023-04-25T08:57:32;3.38;;;3.08;;
79664;SDS011;69132;44.014;20.918;2023-04-25T08:59:59;4.57;;;3.22;;
79664;SDS011;69132;44.014;20.918;2023-04-25T09:02:25;8.27;;;3.92;;
79664;SDS011;69132;44.014;20.918;2023-04-25T09:04:51;7.65;;;4.38;;
79664;SDS011;69132;44.014;20.918;2023-04-25T09:07:20;4.85;;;3.92;;
79664;SDS011;69132;44.014;20.918;2023-04-25T09:09:47;5.82;;;4.40;;
79664;SDS011;69132;44.014;20.918;2023-04-25T09:12:13;8.45;;;5.10;;
79664;SDS011;69132;44.014;20.918;2023-04-25T09:14:39;6.75;;;4.55;;
79664;SDS011;69132;44.014;20.918;2023-04-25T09:19:45;6.15;;;5.20;;
79664;SDS011;69132;44.014;20.918;2023-04-25T09:22:11;5.00;;;3.97;;
79664;SDS011;69132;44.014;20.918;2023-04-25T09:24:41;5.53;;;4.97;;
79664;SDS011;69132;44.014;20.918;2023-04-25T09:27:18;6.70;;;4.30;;
79664;SDS011;69132;44.014;20.918;2023-04-25T09:29:44;4.15;;;3.75;;
79664;SDS011;69132;44.014;20.918;2023-04-25T09:34:44;4.13;;;3.40;;
79664;SDS011;69132;44.014;20.918;2023-04-25T09:37:13;4.15;;;3.75;;
79664;SDS011;69132;44.014;20.918;2023-04-25T09:39:44;4.47;;;4.07;;
79664;SDS011;69132;44.014;20.918;2023-04-25T09:42:11;5.82;;;5.28;;
79664;SDS011;69132;44.014;20.918;2023-04-25T09:47:40;7.38;;;4.95;;
79664;SDS011;69132;44.014;20.918;2023-04-25T09:50:15;11.10;;;3.95;;
79664;SDS011;69132;44.014;20.918;2023-04-25T09:52:42;6.53;;;6.03;;
79664;SDS011;69132;44.014;20.918;2023-04-25T09:55:08;4.93;;;3.67;;
79664;SDS011;69132;44.014;20.918;2023-04-25T09:57:34;5.20;;;4.15;;
79664;SDS011;69132;44.014;20.918;2023-04-25T10:00:05;5.60;;;3.78;;
79664;SDS011;69132;44.014;20.918;2023-04-25T10:02:34;5.57;;;4.30;;
79664;SDS011;69132;44.014;20.918;2023-04-25T10:05:00;12.48;;;5.28;;
79664;SDS011;69132;44.014;20.918;2023-04-25T10:07:29;8.57;;;3.97;;
79664;SDS011;69132;44.014;20.918;2023-04-25T10:09:59;4.68;;;3.25;;
79664;SDS011;69132;44.014;20.918;2023-04-25T10:12:27;6.40;;;4.10;;
79664;SDS011;69132;44.014;20.918;2023-04-25T10:17:24;7.15;;;4.03;;
79664;SDS011;69132;44.014;20.918;2023-04-25T10:19:52;10.52;;;3.75;;
79664;SDS011;69132;44.014;20.918;2023-04-25T10:24:55;36.40;;;5.85;;
79664;SDS011;69132;44.014;20.918;2023-04-25T10:27:22;3.60;;;3.13;;
79664;SDS011;69132;44.014;20.918;2023-04-25T10:30:07;4.50;;;2.92;;
79664;SDS011;69132;44.014;20.918;2023-04-25T10:32:36;6.55;;;3.30;;
79664;SDS011;69132;44.014;20.918;2023-04-25T10:35:12;17.02;;;5.45;;
79664;SDS011;69132;44.014;20.918;2023-04-25T10:40:33;5.05;;;3.00;;
79664;SDS011;69132;44.014;20.918;2023-04-25T10:45:53;3.50;;;2.75;;
79664;SDS011;69132;44.014;20.918;2023-04-25T10:48:26;3.42;;;2.70;;
79664;SDS011;69132;44.014;20.918;2023-04-25T10:56:30;4.75;;;4.35;;
79664;SDS011;69132;44.014;20.918;2023-04-25T11:01:45;5.55;;;4.40;;
79664;SDS011;69132;44.014;20.918;2023-04-25T11:04:24;5.43;;;3.80;;
79664;SDS011;69132;44.014;20.918;2023-04-25T11:15:08;6.72;;;3.30;;
79664;SDS011;69132;44.014;20.918;2023-04-25T11:17:34;3.28;;;2.95;;
79664;SDS011;69132;44.014;20.918;2023-04-25T11:20:01;3.00;;;2.70;;
79664;SDS011;69132;44.014;20.918;2023-04-25T11:22:31;10.82;;;3.42;;
79664;SDS011;69132;44.014;20.918;2023-04-25T11:24:57;2.85;;;2.53;;
79664;SDS011;69132;44.014;20.918;2023-04-25T11:27:24;2.45;;;2.25;;
79664;SDS011;69132;44.014;20.918;2023-04-25T11:29:50;6.82;;;3.65;;
79664;SDS011;69132;44.014;20.918;2023-04-25T11:32:17;3.97;;;3.00;;
79664;SDS011;69132;44.014;20.918;2023-04-25T11:34:44;2.90;;;2.70;;
79664;SDS011;69132;44.014;20.918;2023-04-25T11:37:14;8.07;;;3.65;;
79664;SDS011;69132;44.014;20.918;2023-04-25T11:39:44;3.65;;;2.55;;
79664;SDS011;69132;44.014;20.918;2023-04-25T11:42:11;3.28;;;2.90;;
79664;SDS011;69132;44.014;20.918;2023-04-25T11:44:38;4.10;;;3.20;;
79664;SDS011;69132;44.014;20.918;2023-04-25T11:47:07;5.53;;;3.30;;
79664;SDS011;69132;44.014;20.918;2023-04-25T11:49:35;7.93;;;2.83;;
79664;SDS011;69132;44.014;20.918;2023-04-25T11:52:03;7.75;;;4.50;;
79664;SDS011;69132;44.014;20.918;2023-04-25T11:54:29;7.15;;;4.32;;
79664;SDS011;69132;44.014;20.918;2023-04-25T11:56:56;3.78;;;2.47;;
79664;SDS011;69132;44.014;20.918;2023-04-25T11:59:25;5.55;;;2.72;;
79664;SDS011;69132;44.014;20.918;2023-04-25T12:01:51;4.90;;;2.90;;
79664;SDS011;69132;44.014;20.918;2023-04-25T12:04:26;4.38;;;3.85;;
79664;SDS011;69132;44.014;20.918;2023-04-25T12:06:52;3.63;;;2.92;;
79664;SDS011;69132;44.014;20.918;2023-04-25T12:09:20;3.97;;;2.92;;
79664;SDS011;69132;44.014;20.918;2023-04-25T12:19:19;2.55;;;2.28;;
79664;SDS011;69132;44.014;20.918;2023-04-25T12:21:46;3.20;;;2.10;;
79664;SDS011;69132;44.014;20.918;2023-04-25T12:24:13;4.35;;;1.90;;
79664;SDS011;69132;44.014;20.918;2023-04-25T12:26:47;4.32;;;2.38;;
79664;SDS011;69132;44.014;20.918;2023-04-25T12:29:17;10.63;;;2.78;;
79664;SDS011;69132;44.014;20.918;2023-04-25T12:31:44;4.88;;;3.42;;
79664;SDS011;69132;44.014;20.918;2023-04-25T12:34:13;35.38;;;20.90;;
79664;SDS011;69132;44.014;20.918;2023-04-25T12:36:39;7.30;;;3.65;;
79664;SDS011;69132;44.014;20.918;2023-04-25T12:39:07;5.63;;;2.57;;
79664;SDS011;69132;44.014;20.918;2023-04-25T12:41:35;5.93;;;4.32;;
79664;SDS011;69132;44.014;20.918;2023-04-25T12:44:04;3.95;;;3.00;;
79664;SDS011;69132;44.014;20.918;2023-04-25T12:46:31;8.43;;;3.17;;
79664;SDS011;69132;44.014;20.918;2023-04-25T12:48:57;5.43;;;3.58;;
79664;SDS011;69132;44.014;20.918;2023-04-25T12:51:25;3.10;;;2.40;;
79664;SDS011;69132;44.014;20.918;2023-04-25T12:53:52;4.18;;;3.13;;
79664;SDS011;69132;44.014;20.918;2023-04-25T12:56:19;3.80;;;2.83;;
79664;SDS011;69132;44.014;20.918;2023-04-25T12:58:45;3.50;;;3.20;;
79664;SDS011;69132;44.014;20.918;2023-04-25T13:01:14;7.60;;;2.97;;
79664;SDS011;69132;44.014;20.918;2023-04-25T13:03:40;7.10;;;3.20;;
79664;SDS011;69132;44.014;20.918;2023-04-25T13:06:07;4.53;;;3.03;;
79664;SDS011;69132;44.014;20.918;2023-04-25T13:08:33;4.05;;;2.90;;
79664;SDS011;69132;44.014;20.918;2023-04-25T13:11:00;4.22;;;2.50;;
79664;SDS011;69132;44.014;20.918;2023-04-25T13:13:26;6.13;;;3.13;;
79664;SDS011;69132;44.014;20.918;2023-04-25T13:15:52;2.97;;;2.78;;
79664;SDS011;69132;44.014;20.918;2023-04-25T13:18:18;4.97;;;2.33;;
79664;SDS011;69132;44.014;20.918;2023-04-25T13:20:45;3.88;;;3.00;;
79664;SDS011;69132;44.014;20.918;2023-04-25T13:23:12;3.30;;;2.97;;
79664;SDS011;69132;44.014;20.918;2023-04-25T13:25:38;3.15;;;2.65;;
79664;SDS011;69132;44.014;20.918;2023-04-25T13:28:05;7.68;;;3.08;;
79664;SDS011;69132;44.014;20.918;2023-04-25T13:30:31;3.50;;;2.58;;
79664;SDS011;69132;44.014;20.918;2023-04-25T13:32:57;29.77;;;15.23;;
79664;SDS011;69132;44.014;20.918;2023-04-25T13:35:28;11.55;;;7.30;;
79664;SDS011;69132;44.014;20.918;2023-04-25T13:37:54;7.05;;;3.78;;
79664;SDS011;69132;44.014;20.918;2023-04-25T13:40:20;5.03;;;3.00;;
79664;SDS011;69132;44.014;20.918;2023-04-25T13:42:47;15.30;;;6.30;;
79664;SDS011;69132;44.014;20.918;2023-04-25T13:45:22;5.43;;;2.58;;
79664;SDS011;69132;44.014;20.918;2023-04-25T13:47:48;4.82;;;2.60;;
79664;SDS011;69132;44.014;20.918;2023-04-25T13:50:15;4.93;;;2.40;;
79664;SDS011;69132;44.014;20.918;2023-04-25T13:52:43;10.15;;;5.05;;
79664;SDS011;69132;44.014;20.918;2023-04-25T13:55:10;6.13;;;3.55;;
79664;SDS011;69132;44.014;20.918;2023-04-25T13:57:37;6.72;;;4.18;;
79664;SDS011;69132;44.014;20.918;2023-04-25T14:00:04;5.43;;;3.00;;
79664;SDS011;69132;44.014;20.918;2023-04-25T14:02:36;7.28;;;4.63;;
79664;SDS011;69132;44.014;20.918;2023-04-25T14:05:04;5.57;;;3.20;;
79664;SDS011;69132;44.014;20.918;2023-04-25T14:07:36;7.70;;;4.68;;
79664;SDS011;69132;44.014;20.918;2023-04-25T14:10:02;4.30;;;3.05;;
79664;SDS011;69132;44.014;20.918;2023-04-25T14:15:00;2.90;;;2.03;;
79664;SDS011;69132;44.014;20.918;2023-04-25T14:17:31;4.68;;;2.80;;
79664;SDS011;69132;44.014;20.918;2023-04-25T14:19:57;5.03;;;2.42;;
79664;SDS011;69132;44.014;20.918;2023-04-25T14:22:23;3.80;;;2.58;;
79664;SDS011;69132;44.014;20.918;2023-04-25T14:24:50;3.08;;;2.30;;
79664;SDS011;69132;44.014;20.918;2023-04-25T14:27:17;6.90;;;2.90;;
79664;SDS011;69132;44.014;20.918;2023-04-25T14:29:43;2.55;;;2.15;;
79664;SDS011;69132;44.014;20.918;2023-04-25T14:32:09;2.45;;;2.20;;
79664;SDS011;69132;44.014;20.918;2023-04-25T14:34:35;3.13;;;2.33;;
79664;SDS011;69132;44.014;20.918;2023-04-25T14:37:01;4.53;;;3.13;;
79664;SDS011;69132;44.014;20.918;2023-04-25T14:39:27;4.55;;;2.58;;
79664;SDS011;69132;44.014;20.918;2023-04-25T14:41:55;4.07;;;2.67;;
79664;SDS011;69132;44.014;20.918;2023-04-25T14:44:22;3.15;;;2.80;;
79664;SDS011;69132;44.014;20.918;2023-04-25T14:46:48;12.32;;;4.03;;
79664;SDS011;69132;44.014;20.918;2023-04-25T14:49:19;5.53;;;2.80;;
79664;SDS011;69132;44.014;20.918;2023-04-25T14:51:45;3.70;;;2.72;;
79664;SDS011;69132;44.014;20.918;2023-04-25T14:54:13;3.95;;;2.70;;
79664;SDS011;69132;44.014;20.918;2023-04-25T14:56:39;5.03;;;3.30;;
79664;SDS011;69132;44.014;20.918;2023-04-25T14:59:05;5.30;;;3.38;;
79664;SDS011;69132;44.014;20.918;2023-04-25T15:01:31;3.67;;;3.22;;
79664;SDS011;69132;44.014;20.918;2023-04-25T15:03:57;15.43;;;8.48;;
79664;SDS011;69132;44.014;20.918;2023-04-25T15:06:24;5.00;;;3.90;;
79664;SDS011;69132;44.014;20.918;2023-04-25T15:08:54;4.65;;;3.60;;
79664;SDS011;69132;44.014;20.918;2023-04-25T15:11:21;4.28;;;3.50;;
79664;SDS011;69132;44.014;20.918;2023-04-25T15:13:47;4.95;;;4.30;;
79664;SDS011;69132;44.014;20.918;2023-04-25T15:16:13;5.22;;;3.72;;
79664;SDS011;69132;44.014;20.918;2023-04-25T15:18:40;6.97;;;3.90;;
79664;SDS011;69132;44.014;20.918;2023-04-25T15:21:06;4.18;;;3.50;;
79664;SDS011;69132;44.014;20.918;2023-04-25T15:23:33;5.50;;;3.95;;
79664;SDS011;69132;44.014;20.918;2023-04-25T15:25:59;6.45;;;4.20;;